sensor_id;sensor_type;location;lat;lon;timestamp;P1;durP1;ratioP1;P2;durP2;ratioP2
5742;SDS011;2896;53.500;10.020;2023-02-01T00:02:13;35.00;;;5.10;;
5742;SDS011;2896;53.500;10.020;2023-02-01T00:04:41;27.20;;;4.57;;
5742;SDS011;2896;53.500;10.020;2023-02-01T00:07:08;23.93;;;4.73;;
5742;SDS011;2896;53.500;10.020;2023-02-01T00:09:34;20.53;;;5.40;;
5742;SDS011;2896;53.500;10.020;2023-02-01T00:12:01;37.87;;;5.70;;
5742;SDS011;2896;53.500;10.020;2023-02-01T00:14:28;33.67;;;5.70;;
5742;SDS011;2896;53.500;10.020;2023-02-01T00:16:57;41.07;;;5.83;;
5742;SDS011;2896;53.500;10.020;2023-02-01T00:19:23;36.70;;;5.43;;
5742;SDS011;2896;53.500;10.020;2023-02-01T00:21:51;28.20;;;4.97;;
5742;SDS011;2896;53.500;10.020;2023-02-01T00:24:18;30.17;;;5.03;;
5742;SDS011;2896;53.500;10.020;2023-02-01T00:26:45;29.53;;;5.73;;
5742;SDS011;2896;53.500;10.020;2023-02-01T00:29:12;29.77;;;5.10;;
5742;SDS011;2896;53.500;10.020;2023-02-01T00:31:40;25.80;;;5.47;;
5742;SDS011;2896;53.500;10.020;2023-02-01T00:34:07;28.50;;;4.63;;
5742;SDS011;2896;53.500;10.020;2023-02-01T00:36:35;21.47;;;5.50;;
5742;SDS011;2896;53.500;10.020;2023-02-01T00:39:03;45.60;;;5.40;;
5742;SDS011;2896;53.500;10.020;2023-02-01T00:41:29;29.57;;;6.20;;
5742;SDS011;2896;53.500;10.020;2023-02-01T00:43:56;31.63;;;5.90;;
5742;SDS011;2896;53.500;10.020;2023-02-01T00:46:23;27.00;;;5.87;;
5742;SDS011;2896;53.500;10.020;2023-02-01T00:48:50;38.37;;;6.37;;
5742;SDS011;2896;53.500;10.020;2023-02-01T00:51:17;33.93;;;7.20;;
5742;SDS011;2896;53.500;10.020;2023-02-01T00:53:45;26.03;;;5.17;;
5742;SDS011;2896;53.500;10.020;2023-02-01T00:56:14;53.93;;;6.97;;
5742;SDS011;2896;53.500;10.020;2023-02-01T00:58:41;30.90;;;6.17;;
5742;SDS011;2896;53.500;10.020;2023-02-01T01:01:09;37.17;;;7.80;;
5742;SDS011;2896;53.500;10.020;2023-02-01T01:03:38;35.00;;;7.00;;
5742;SDS011;2896;53.500;10.020;2023-02-01T01:06:08;25.93;;;7.17;;
5742;SDS011;2896;53.500;10.020;2023-02-01T01:08:36;41.70;;;6.47;;
5742;SDS011;2896;53.500;10.020;2023-02-01T01:11:04;47.40;;;6.37;;
5742;SDS011;2896;53.500;10.020;2023-02-01T01:13:33;51.43;;;8.13;;
5742;SDS011;2896;53.500;10.020;2023-02-01T01:16:00;33.97;;;6.40;;
5742;SDS011;2896;53.500;10.020;2023-02-01T01:18:28;33.80;;;5.83;;
5742;SDS011;2896;53.500;10.020;2023-02-01T01:20:55;44.80;;;7.30;;
5742;SDS011;2896;53.500;10.020;2023-02-01T01:23:22;51.80;;;7.50;;
5742;SDS011;2896;53.500;10.020;2023-02-01T01:25:48;32.27;;;6.00;;
5742;SDS011;2896;53.500;10.020;2023-02-01T01:28:15;34.43;;;6.57;;
5742;SDS011;2896;53.500;10.020;2023-02-01T01:30:43;54.53;;;7.40;;
5742;SDS011;2896;53.500;10.020;2023-02-01T01:33:10;40.23;;;7.17;;
5742;SDS011;2896;53.500;10.020;2023-02-01T01:35:36;52.50;;;6.90;;
5742;SDS011;2896;53.500;10.020;2023-02-01T01:38:03;40.27;;;6.50;;
5742;SDS011;2896;53.500;10.020;2023-02-01T01:40:30;30.80;;;6.57;;
5742;SDS011;2896;53.500;10.020;2023-02-01T01:42:57;42.37;;;6.43;;
5742;SDS011;2896;53.500;10.020;2023-02-01T01:45:25;38.37;;;5.23;;
5742;SDS011;2896;53.500;10.020;2023-02-01T01:47:56;49.73;;;7.53;;
5742;SDS011;2896;53.500;10.020;2023-02-01T01:50:27;52.63;;;7.27;;
5742;SDS011;2896;53.500;10.020;2023-02-01T01:52:55;41.07;;;6.40;;
5742;SDS011;2896;53.500;10.020;2023-02-01T01:55:24;42.63;;;6.10;;
5742;SDS011;2896;53.500;10.020;2023-02-01T01:57:57;40.20;;;6.83;;
5742;SDS011;2896;53.500;10.020;2023-02-01T02:00:27;53.37;;;8.10;;
5742;SDS011;2896;53.500;10.020;2023-02-01T02:02:57;45.53;;;8.17;;
5742;SDS011;2896;53.500;10.020;2023-02-01T02:05:28;43.37;;;7.80;;
5742;SDS011;2896;53.500;10.020;2023-02-01T02:07:57;44.73;;;6.27;;
5742;SDS011;2896;53.500;10.020;2023-02-01T02:10:25;45.70;;;7.73;;
5742;SDS011;2896;53.500;10.020;2023-02-01T02:13:13;52.20;;;8.37;;
5742;SDS011;2896;53.500;10.020;2023-02-01T02:15:43;44.30;;;6.93;;
5742;SDS011;2896;53.500;10.020;2023-02-01T02:18:17;49.43;;;8.23;;
5742;SDS011;2896;53.500;10.020;2023-02-01T02:20:53;40.43;;;5.83;;
5742;SDS011;2896;53.500;10.020;2023-02-01T02:26:47;40.87;;;6.37;;
5742;SDS011;2896;53.500;10.020;2023-02-01T02:29:43;56.40;;;6.60;;
5742;SDS011;2896;53.500;10.020;2023-02-01T02:32:40;44.30;;;8.30;;
5742;SDS011;2896;53.500;10.020;2023-02-01T02:35:27;39.30;;;8.03;;
5742;SDS011;2896;53.500;10.020;2023-02-01T02:38:02;49.47;;;8.00;;
5742;SDS011;2896;53.500;10.020;2023-02-01T02:40:37;44.90;;;6.80;;
5742;SDS011;2896;53.500;10.020;2023-02-01T02:43:11;45.30;;;7.90;;
5742;SDS011;2896;53.500;10.020;2023-02-01T02:46:01;48.00;;;8.70;;
5742;SDS011;2896;53.500;10.020;2023-02-01T02:48:54;49.47;;;6.50;;
5742;SDS011;2896;53.500;10.020;2023-02-01T02:51:28;49.43;;;7.77;;
5742;SDS011;2896;53.500;10.020;2023-02-01T02:54:18;46.40;;;7.63;;
5742;SDS011;2896;53.500;10.020;2023-02-01T02:57:06;39.40;;;6.90;;
5742;SDS011;2896;53.500;10.020;2023-02-01T02:59:52;49.77;;;7.23;;
5742;SDS011;2896;53.500;10.020;2023-02-01T03:02:39;37.63;;;5.90;;
5742;SDS011;2896;53.500;10.020;2023-02-01T03:05:23;38.17;;;6.37;;
5742;SDS011;2896;53.500;10.020;2023-02-01T03:07:57;48.93;;;6.80;;
5742;SDS011;2896;53.500;10.020;2023-02-01T03:10:33;49.20;;;7.00;;
5742;SDS011;2896;53.500;10.020;2023-02-01T03:13:08;51.00;;;6.67;;
5742;SDS011;2896;53.500;10.020;2023-02-01T03:15:38;36.77;;;7.00;;
5742;SDS011;2896;53.500;10.020;2023-02-01T03:18:11;27.17;;;6.10;;
5742;SDS011;2896;53.500;10.020;2023-02-01T03:20:42;35.93;;;6.30;;
5742;SDS011;2896;53.500;10.020;2023-02-01T03:23:16;32.60;;;7.20;;
5742;SDS011;2896;53.500;10.020;2023-02-01T03:25:46;26.80;;;5.37;;
5742;SDS011;2896;53.500;10.020;2023-02-01T03:28:15;25.90;;;6.07;;
5742;SDS011;2896;53.500;10.020;2023-02-01T03:30:46;29.77;;;4.77;;
5742;SDS011;2896;53.500;10.020;2023-02-01T03:33:16;29.67;;;5.27;;
5742;SDS011;2896;53.500;10.020;2023-02-01T03:35:48;25.13;;;5.00;;
5742;SDS011;2896;53.500;10.020;2023-02-01T03:38:23;22.03;;;4.00;;
5742;SDS011;2896;53.500;10.020;2023-02-01T03:40:53;19.00;;;3.63;;
5742;SDS011;2896;53.500;10.020;2023-02-01T03:43:27;10.07;;;2.60;;
5742;SDS011;2896;53.500;10.020;2023-02-01T03:45:59;9.57;;;2.60;;
5742;SDS011;2896;53.500;10.020;2023-02-01T03:48:33;8.70;;;3.10;;
5742;SDS011;2896;53.500;10.020;2023-02-01T03:51:01;13.17;;;2.17;;
5742;SDS011;2896;53.500;10.020;2023-02-01T03:53:32;11.00;;;2.83;;
5742;SDS011;2896;53.500;10.020;2023-02-01T03:56:02;18.17;;;3.13;;
5742;SDS011;2896;53.500;10.020;2023-02-01T03:58:29;21.10;;;4.00;;
5742;SDS011;2896;53.500;10.020;2023-02-01T04:00:56;23.93;;;4.33;;
5742;SDS011;2896;53.500;10.020;2023-02-01T04:03:24;21.20;;;4.17;;
5742;SDS011;2896;53.500;10.020;2023-02-01T04:05:52;19.93;;;3.50;;
5742;SDS011;2896;53.500;10.020;2023-02-01T04:08:20;29.60;;;4.30;;
5742;SDS011;2896;53.500;10.020;2023-02-01T04:10:48;30.60;;;4.60;;
5742;SDS011;2896;53.500;10.020;2023-02-01T04:13:15;17.77;;;4.50;;
5742;SDS011;2896;53.500;10.020;2023-02-01T04:15:42;14.70;;;3.57;;
5742;SDS011;2896;53.500;10.020;2023-02-01T04:18:08;31.70;;;4.70;;
5742;SDS011;2896;53.500;10.020;2023-02-01T04:20:35;21.67;;;3.70;;
5742;SDS011;2896;53.500;10.020;2023-02-01T04:23:02;24.33;;;4.07;;
5742;SDS011;2896;53.500;10.020;2023-02-01T04:25:29;21.07;;;3.87;;
5742;SDS011;2896;53.500;10.020;2023-02-01T04:27:57;31.50;;;4.03;;
5742;SDS011;2896;53.500;10.020;2023-02-01T04:30:24;15.07;;;3.10;;
5742;SDS011;2896;53.500;10.020;2023-02-01T04:32:50;32.80;;;4.57;;
5742;SDS011;2896;53.500;10.020;2023-02-01T04:35:17;27.20;;;5.07;;
5742;SDS011;2896;53.500;10.020;2023-02-01T04:37:44;12.17;;;3.30;;
5742;SDS011;2896;53.500;10.020;2023-02-01T04:40:11;16.53;;;4.20;;
5742;SDS011;2896;53.500;10.020;2023-02-01T04:42:38;22.17;;;3.80;;
5742;SDS011;2896;53.500;10.020;2023-02-01T04:45:06;14.63;;;3.40;;
5742;SDS011;2896;53.500;10.020;2023-02-01T04:47:34;23.23;;;3.60;;
5742;SDS011;2896;53.500;10.020;2023-02-01T04:50:00;23.10;;;3.63;;
5742;SDS011;2896;53.500;10.020;2023-02-01T04:52:27;12.80;;;3.00;;
5742;SDS011;2896;53.500;10.020;2023-02-01T04:54:54;11.43;;;2.63;;
5742;SDS011;2896;53.500;10.020;2023-02-01T04:57:22;16.20;;;3.70;;
5742;SDS011;2896;53.500;10.020;2023-02-01T04:59:49;18.93;;;3.43;;
5742;SDS011;2896;53.500;10.020;2023-02-01T05:02:17;15.40;;;3.27;;
5742;SDS011;2896;53.500;10.020;2023-02-01T05:04:44;20.03;;;3.30;;
5742;SDS011;2896;53.500;10.020;2023-02-01T05:07:10;14.70;;;3.07;;
5742;SDS011;2896;53.500;10.020;2023-02-01T05:09:37;22.17;;;2.73;;
5742;SDS011;2896;53.500;10.020;2023-02-01T05:12:04;16.37;;;2.73;;
5742;SDS011;2896;53.500;10.020;2023-02-01T05:14:48;4.63;;;2.30;;
5742;SDS011;2896;53.500;10.020;2023-02-01T05:17:15;4.17;;;1.53;;
5742;SDS011;2896;53.500;10.020;2023-02-01T05:19:43;5.17;;;1.70;;
5742;SDS011;2896;53.500;10.020;2023-02-01T05:22:10;5.23;;;1.60;;
5742;SDS011;2896;53.500;10.020;2023-02-01T05:24:36;6.33;;;1.83;;
5742;SDS011;2896;53.500;10.020;2023-02-01T05:27:03;2.87;;;1.20;;
5742;SDS011;2896;53.500;10.020;2023-02-01T05:29:30;3.23;;;1.50;;
5742;SDS011;2896;53.500;10.020;2023-02-01T05:31:56;6.10;;;1.47;;
5742;SDS011;2896;53.500;10.020;2023-02-01T05:34:23;1.70;;;1.30;;
5742;SDS011;2896;53.500;10.020;2023-02-01T05:36:51;2.23;;;1.10;;
5742;SDS011;2896;53.500;10.020;2023-02-01T05:39:17;0.90;;;0.90;;
5742;SDS011;2896;53.500;10.020;2023-02-01T05:41:44;1.80;;;0.90;;
5742;SDS011;2896;53.500;10.020;2023-02-01T05:44:11;1.40;;;1.20;;
5742;SDS011;2896;53.500;10.020;2023-02-01T05:46:38;7.20;;;1.20;;
5742;SDS011;2896;53.500;10.020;2023-02-01T05:49:04;0.90;;;0.90;;
5742;SDS011;2896;53.500;10.020;2023-02-01T05:51:31;1.10;;;1.00;;
5742;SDS011;2896;53.500;10.020;2023-02-01T05:53:59;1.20;;;0.97;;
5742;SDS011;2896;53.500;10.020;2023-02-01T05:56:26;3.30;;;1.17;;
5742;SDS011;2896;53.500;10.020;2023-02-01T05:58:52;4.73;;;1.17;;
5742;SDS011;2896;53.500;10.020;2023-02-01T06:01:19;6.43;;;1.47;;
5742;SDS011;2896;53.500;10.020;2023-02-01T06:03:46;1.40;;;1.30;;
5742;SDS011;2896;53.500;10.020;2023-02-01T06:06:12;2.70;;;1.17;;
5742;SDS011;2896;53.500;10.020;2023-02-01T06:08:39;6.53;;;1.30;;
5742;SDS011;2896;53.500;10.020;2023-02-01T06:11:07;6.63;;;1.10;;
5742;SDS011;2896;53.500;10.020;2023-02-01T06:13:34;1.97;;;1.27;;
5742;SDS011;2896;53.500;10.020;2023-02-01T06:16:02;9.10;;;1.77;;
5742;SDS011;2896;53.500;10.020;2023-02-01T06:18:31;5.07;;;1.30;;
5742;SDS011;2896;53.500;10.020;2023-02-01T06:20:58;4.77;;;1.30;;
5742;SDS011;2896;53.500;10.020;2023-02-01T06:23:25;1.40;;;1.30;;
5742;SDS011;2896;53.500;10.020;2023-02-01T06:25:52;11.73;;;1.97;;
5742;SDS011;2896;53.500;10.020;2023-02-01T06:28:25;2.40;;;1.37;;
5742;SDS011;2896;53.500;10.020;2023-02-01T06:30:52;2.53;;;1.60;;
5742;SDS011;2896;53.500;10.020;2023-02-01T06:33:19;3.70;;;2.03;;
5742;SDS011;2896;53.500;10.020;2023-02-01T06:35:46;5.53;;;1.80;;
5742;SDS011;2896;53.500;10.020;2023-02-01T06:38:12;9.53;;;2.40;;
5742;SDS011;2896;53.500;10.020;2023-02-01T06:40:40;6.27;;;2.33;;
5742;SDS011;2896;53.500;10.020;2023-02-01T06:43:07;5.87;;;2.50;;
5742;SDS011;2896;53.500;10.020;2023-02-01T06:45:35;22.00;;;2.93;;
5742;SDS011;2896;53.500;10.020;2023-02-01T06:48:02;16.57;;;2.97;;
5742;SDS011;2896;53.500;10.020;2023-02-01T06:50:29;16.73;;;2.90;;
5742;SDS011;2896;53.500;10.020;2023-02-01T06:52:55;12.70;;;2.87;;
5742;SDS011;2896;53.500;10.020;2023-02-01T06:55:22;13.20;;;4.20;;
5742;SDS011;2896;53.500;10.020;2023-02-01T06:57:52;16.30;;;3.27;;
5742;SDS011;2896;53.500;10.020;2023-02-01T07:00:20;16.43;;;4.03;;
5742;SDS011;2896;53.500;10.020;2023-02-01T07:02:48;14.10;;;4.30;;
5742;SDS011;2896;53.500;10.020;2023-02-01T07:05:15;24.97;;;4.03;;
5742;SDS011;2896;53.500;10.020;2023-02-01T07:07:43;20.63;;;3.70;;
5742;SDS011;2896;53.500;10.020;2023-02-01T07:10:10;19.00;;;3.30;;
5742;SDS011;2896;53.500;10.020;2023-02-01T07:12:37;18.57;;;3.57;;
5742;SDS011;2896;53.500;10.020;2023-02-01T07:15:04;16.87;;;3.60;;
5742;SDS011;2896;53.500;10.020;2023-02-01T07:17:31;24.93;;;4.10;;
5742;SDS011;2896;53.500;10.020;2023-02-01T07:19:59;30.10;;;5.33;;
5742;SDS011;2896;53.500;10.020;2023-02-01T07:22:26;29.70;;;4.80;;
5742;SDS011;2896;53.500;10.020;2023-02-01T07:24:53;16.57;;;5.10;;
5742;SDS011;2896;53.500;10.020;2023-02-01T07:27:20;28.93;;;4.47;;
5742;SDS011;2896;53.500;10.020;2023-02-01T07:29:49;21.13;;;3.60;;
5742;SDS011;2896;53.500;10.020;2023-02-01T07:32:16;18.30;;;4.57;;
5742;SDS011;2896;53.500;10.020;2023-02-01T07:34:43;40.27;;;5.57;;
5742;SDS011;2896;53.500;10.020;2023-02-01T07:37:11;45.30;;;6.20;;
5742;SDS011;2896;53.500;10.020;2023-02-01T07:39:37;34.77;;;5.67;;
5742;SDS011;2896;53.500;10.020;2023-02-01T07:42:04;42.03;;;6.73;;
5742;SDS011;2896;53.500;10.020;2023-02-01T07:44:31;44.17;;;7.50;;
5742;SDS011;2896;53.500;10.020;2023-02-01T07:46:58;29.03;;;5.87;;
5742;SDS011;2896;53.500;10.020;2023-02-01T07:49:25;47.63;;;7.57;;
5742;SDS011;2896;53.500;10.020;2023-02-01T07:51:51;51.97;;;6.70;;
5742;SDS011;2896;53.500;10.020;2023-02-01T07:54:19;32.27;;;6.30;;
5742;SDS011;2896;53.500;10.020;2023-02-01T07:56:46;26.93;;;4.97;;
5742;SDS011;2896;53.500;10.020;2023-02-01T07:59:12;35.77;;;5.80;;
5742;SDS011;2896;53.500;10.020;2023-02-01T08:01:40;26.17;;;5.53;;
5742;SDS011;2896;53.500;10.020;2023-02-01T08:04:05;20.27;;;5.33;;
5742;SDS011;2896;53.500;10.020;2023-02-01T08:06:32;31.43;;;4.63;;
5742;SDS011;2896;53.500;10.020;2023-02-01T08:09:00;21.40;;;5.40;;
5742;SDS011;2896;53.500;10.020;2023-02-01T08:11:28;40.70;;;7.00;;
5742;SDS011;2896;53.500;10.020;2023-02-01T08:13:55;35.27;;;6.30;;
5742;SDS011;2896;53.500;10.020;2023-02-01T08:16:21;52.60;;;6.53;;
5742;SDS011;2896;53.500;10.020;2023-02-01T08:18:49;53.40;;;6.33;;
5742;SDS011;2896;53.500;10.020;2023-02-01T08:21:17;29.47;;;5.20;;
5742;SDS011;2896;53.500;10.020;2023-02-01T08:23:45;27.70;;;6.30;;
5742;SDS011;2896;53.500;10.020;2023-02-01T08:26:12;27.63;;;6.33;;
5742;SDS011;2896;53.500;10.020;2023-02-01T08:28:42;24.97;;;5.73;;
5742;SDS011;2896;53.500;10.020;2023-02-01T08:31:12;36.03;;;5.47;;
5742;SDS011;2896;53.500;10.020;2023-02-01T08:33:40;27.93;;;7.17;;
5742;SDS011;2896;53.500;10.020;2023-02-01T08:36:08;48.10;;;6.47;;
5742;SDS011;2896;53.500;10.020;2023-02-01T08:38:36;62.77;;;7.23;;
5742;SDS011;2896;53.500;10.020;2023-02-01T08:41:04;35.97;;;6.50;;
5742;SDS011;2896;53.500;10.020;2023-02-01T08:43:31;49.70;;;6.20;;
5742;SDS011;2896;53.500;10.020;2023-02-01T08:45:59;23.60;;;4.50;;
5742;SDS011;2896;53.500;10.020;2023-02-01T08:48:26;36.77;;;6.50;;
5742;SDS011;2896;53.500;10.020;2023-02-01T08:50:52;46.83;;;7.20;;
5742;SDS011;2896;53.500;10.020;2023-02-01T08:53:19;33.03;;;5.20;;
5742;SDS011;2896;53.500;10.020;2023-02-01T08:55:46;35.67;;;6.47;;
5742;SDS011;2896;53.500;10.020;2023-02-01T08:58:13;30.57;;;5.60;;
5742;SDS011;2896;53.500;10.020;2023-02-01T09:00:41;32.83;;;5.90;;
5742;SDS011;2896;53.500;10.020;2023-02-01T09:03:10;27.33;;;6.00;;
5742;SDS011;2896;53.500;10.020;2023-02-01T09:05:38;37.97;;;5.80;;
5742;SDS011;2896;53.500;10.020;2023-02-01T09:08:04;27.07;;;4.80;;
5742;SDS011;2896;53.500;10.020;2023-02-01T09:10:31;26.80;;;5.07;;
5742;SDS011;2896;53.500;10.020;2023-02-01T09:12:58;26.60;;;6.00;;
5742;SDS011;2896;53.500;10.020;2023-02-01T09:15:25;31.67;;;6.87;;
5742;SDS011;2896;53.500;10.020;2023-02-01T09:17:51;35.80;;;5.17;;
5742;SDS011;2896;53.500;10.020;2023-02-01T09:20:19;37.90;;;6.33;;
5742;SDS011;2896;53.500;10.020;2023-02-01T09:22:49;39.27;;;6.40;;
5742;SDS011;2896;53.500;10.020;2023-02-01T09:25:16;33.20;;;4.70;;
5742;SDS011;2896;53.500;10.020;2023-02-01T09:27:42;27.77;;;5.07;;
5742;SDS011;2896;53.500;10.020;2023-02-01T09:30:10;18.63;;;5.00;;
5742;SDS011;2896;53.500;10.020;2023-02-01T09:32:37;25.17;;;4.87;;
5742;SDS011;2896;53.500;10.020;2023-02-01T09:35:04;34.07;;;5.53;;
5742;SDS011;2896;53.500;10.020;2023-02-01T09:37:32;25.87;;;4.60;;
5742;SDS011;2896;53.500;10.020;2023-02-01T09:39:59;35.50;;;6.50;;
5742;SDS011;2896;53.500;10.020;2023-02-01T09:42:31;29.40;;;6.27;;
5742;SDS011;2896;53.500;10.020;2023-02-01T09:45:14;33.00;;;5.40;;
5742;SDS011;2896;53.500;10.020;2023-02-01T09:47:47;44.30;;;6.77;;
5742;SDS011;2896;53.500;10.020;2023-02-01T09:50:17;43.83;;;5.07;;
5742;SDS011;2896;53.500;10.020;2023-02-01T09:52:50;35.13;;;4.70;;
5742;SDS011;2896;53.500;10.020;2023-02-01T09:55:23;32.43;;;5.93;;
5742;SDS011;2896;53.500;10.020;2023-02-01T09:57:58;29.13;;;6.17;;
5742;SDS011;2896;53.500;10.020;2023-02-01T10:00:29;27.63;;;5.13;;
5742;SDS011;2896;53.500;10.020;2023-02-01T10:02:59;30.00;;;4.40;;
5742;SDS011;2896;53.500;10.020;2023-02-01T10:05:35;25.80;;;5.57;;
5742;SDS011;2896;53.500;10.020;2023-02-01T10:08:17;22.13;;;4.47;;
5742;SDS011;2896;53.500;10.020;2023-02-01T10:10:52;38.50;;;5.53;;
5742;SDS011;2896;53.500;10.020;2023-02-01T10:13:30;35.97;;;5.37;;
5742;SDS011;2896;53.500;10.020;2023-02-01T10:16:06;37.37;;;5.30;;
5742;SDS011;2896;53.500;10.020;2023-02-01T10:21:37;29.77;;;4.70;;
5742;SDS011;2896;53.500;10.020;2023-02-01T10:24:27;39.97;;;5.40;;
5742;SDS011;2896;53.500;10.020;2023-02-01T10:27:13;31.83;;;4.60;;
5742;SDS011;2896;53.500;10.020;2023-02-01T10:29:44;26.33;;;5.03;;
5742;SDS011;2896;53.500;10.020;2023-02-01T10:32:15;21.13;;;4.07;;
5742;SDS011;2896;53.500;10.020;2023-02-01T10:34:46;40.53;;;5.40;;
5742;SDS011;2896;53.500;10.020;2023-02-01T10:37:22;18.30;;;4.77;;
5742;SDS011;2896;53.500;10.020;2023-02-01T10:39:54;33.77;;;6.27;;
5742;SDS011;2896;53.500;10.020;2023-02-01T10:42:24;23.47;;;4.17;;
5742;SDS011;2896;53.500;10.020;2023-02-01T10:44:52;23.70;;;5.07;;
5742;SDS011;2896;53.500;10.020;2023-02-01T10:47:20;24.97;;;4.70;;
5742;SDS011;2896;53.500;10.020;2023-02-01T10:49:49;32.57;;;5.20;;
5742;SDS011;2896;53.500;10.020;2023-02-01T10:52:28;44.63;;;5.80;;
5742;SDS011;2896;53.500;10.020;2023-02-01T10:57:55;41.03;;;6.10;;
5742;SDS011;2896;53.500;10.020;2023-02-01T11:00:23;39.17;;;5.50;;
5742;SDS011;2896;53.500;10.020;2023-02-01T11:02:50;14.83;;;4.40;;
5742;SDS011;2896;53.500;10.020;2023-02-01T11:05:17;17.43;;;5.00;;
5742;SDS011;2896;53.500;10.020;2023-02-01T11:07:46;31.13;;;5.53;;
5742;SDS011;2896;53.500;10.020;2023-02-01T11:10:34;37.00;;;5.60;;
5742;SDS011;2896;53.500;10.020;2023-02-01T11:13:04;25.93;;;4.67;;
5742;SDS011;2896;53.500;10.020;2023-02-01T11:15:31;20.30;;;5.47;;
5742;SDS011;2896;53.500;10.020;2023-02-01T11:17:58;32.40;;;4.33;;
5742;SDS011;2896;53.500;10.020;2023-02-01T11:20:41;29.33;;;4.80;;
5742;SDS011;2896;53.500;10.020;2023-02-01T11:23:13;20.53;;;5.10;;
5742;SDS011;2896;53.500;10.020;2023-02-01T11:25:48;22.77;;;5.80;;
5742;SDS011;2896;53.500;10.020;2023-02-01T11:28:16;27.17;;;4.47;;
5742;SDS011;2896;53.500;10.020;2023-02-01T11:30:44;23.43;;;4.37;;
5742;SDS011;2896;53.500;10.020;2023-02-01T11:33:13;44.80;;;5.50;;
5742;SDS011;2896;53.500;10.020;2023-02-01T11:35:42;23.23;;;4.57;;
5742;SDS011;2896;53.500;10.020;2023-02-01T11:38:18;29.23;;;4.83;;
5742;SDS011;2896;53.500;10.020;2023-02-01T11:40:49;32.73;;;6.50;;
5742;SDS011;2896;53.500;10.020;2023-02-01T11:43:18;21.93;;;4.43;;
5742;SDS011;2896;53.500;10.020;2023-02-01T11:45:57;20.23;;;5.60;;
5742;SDS011;2896;53.500;10.020;2023-02-01T11:48:25;30.33;;;4.40;;
5742;SDS011;2896;53.500;10.020;2023-02-01T11:50:57;20.20;;;4.30;;
5742;SDS011;2896;53.500;10.020;2023-02-01T11:53:37;21.70;;;4.70;;
5742;SDS011;2896;53.500;10.020;2023-02-01T11:56:17;24.33;;;4.57;;
5742;SDS011;2896;53.500;10.020;2023-02-01T12:01:52;20.40;;;4.70;;
5742;SDS011;2896;53.500;10.020;2023-02-01T12:07:35;20.80;;;3.67;;
5742;SDS011;2896;53.500;10.020;2023-02-01T12:10:16;18.80;;;2.80;;
5742;SDS011;2896;53.500;10.020;2023-02-01T12:12:53;19.10;;;3.50;;
5742;SDS011;2896;53.500;10.020;2023-02-01T12:15:33;20.77;;;3.40;;
5742;SDS011;2896;53.500;10.020;2023-02-01T12:18:23;14.10;;;2.97;;
5742;SDS011;2896;53.500;10.020;2023-02-01T12:21:06;13.00;;;3.20;;
5742;SDS011;2896;53.500;10.020;2023-02-01T12:23:57;14.53;;;3.60;;
5742;SDS011;2896;53.500;10.020;2023-02-01T12:26:38;7.83;;;3.70;;
5742;SDS011;2896;53.500;10.020;2023-02-01T12:29:18;12.70;;;3.27;;
5742;SDS011;2896;53.500;10.020;2023-02-01T12:32:11;15.40;;;2.87;;
5742;SDS011;2896;53.500;10.020;2023-02-01T12:37:47;3.90;;;1.93;;
5742;SDS011;2896;53.500;10.020;2023-02-01T12:40:39;6.90;;;1.97;;
5742;SDS011;2896;53.500;10.020;2023-02-01T12:43:14;8.90;;;1.80;;
5742;SDS011;2896;53.500;10.020;2023-02-01T12:45:49;1.33;;;1.23;;
5742;SDS011;2896;53.500;10.020;2023-02-01T12:48:24;2.73;;;1.90;;
5742;SDS011;2896;53.500;10.020;2023-02-01T12:51:06;1.93;;;1.40;;
5742;SDS011;2896;53.500;10.020;2023-02-01T12:53:42;1.20;;;1.00;;
5742;SDS011;2896;53.500;10.020;2023-02-01T12:56:14;1.20;;;1.20;;
5742;SDS011;2896;53.500;10.020;2023-02-01T12:58:45;1.73;;;1.10;;
5742;SDS011;2896;53.500;10.020;2023-02-01T13:01:17;2.40;;;0.90;;
5742;SDS011;2896;53.500;10.020;2023-02-01T13:03:52;0.90;;;0.90;;
5742;SDS011;2896;53.500;10.020;2023-02-01T13:06:26;1.93;;;1.37;;
5742;SDS011;2896;53.500;10.020;2023-02-01T13:08:56;1.40;;;1.30;;
5742;SDS011;2896;53.500;10.020;2023-02-01T13:11:29;4.33;;;1.23;;
5742;SDS011;2896;53.500;10.020;2023-02-01T13:14:00;1.30;;;1.20;;
5742;SDS011;2896;53.500;10.020;2023-02-01T13:16:33;1.37;;;1.10;;
5742;SDS011;2896;53.500;10.020;2023-02-01T13:19:05;1.10;;;1.00;;
5742;SDS011;2896;53.500;10.020;2023-02-01T13:21:39;1.77;;;1.30;;
5742;SDS011;2896;53.500;10.020;2023-02-01T13:24:26;1.13;;;1.03;;
5742;SDS011;2896;53.500;10.020;2023-02-01T13:26:57;1.00;;;1.00;;
5742;SDS011;2896;53.500;10.020;2023-02-01T13:29:23;1.07;;;0.83;;
5742;SDS011;2896;53.500;10.020;2023-02-01T13:31:56;1.87;;;0.87;;
5742;SDS011;2896;53.500;10.020;2023-02-01T13:37:51;0.97;;;0.97;;
5742;SDS011;2896;53.500;10.020;2023-02-01T13:40:33;1.20;;;1.13;;
5742;SDS011;2896;53.500;10.020;2023-02-01T13:43:05;0.80;;;0.80;;
5742;SDS011;2896;53.500;10.020;2023-02-01T13:45:37;1.40;;;0.90;;
5742;SDS011;2896;53.500;10.020;2023-02-01T13:48:17;1.63;;;1.07;;
5742;SDS011;2896;53.500;10.020;2023-02-01T13:50:49;1.00;;;1.00;;
5742;SDS011;2896;53.500;10.020;2023-02-01T13:53:18;1.40;;;1.30;;
5742;SDS011;2896;53.500;10.020;2023-02-01T13:55:54;2.10;;;1.10;;
5742;SDS011;2896;53.500;10.020;2023-02-01T13:58:29;1.37;;;1.03;;
5742;SDS011;2896;53.500;10.020;2023-02-01T14:03:58;5.10;;;1.03;;
5742;SDS011;2896;53.500;10.020;2023-02-01T14:06:42;4.90;;;1.23;;
5742;SDS011;2896;53.500;10.020;2023-02-01T14:09:12;7.73;;;1.17;;
5742;SDS011;2896;53.500;10.020;2023-02-01T14:11:45;1.30;;;1.20;;
5742;SDS011;2896;53.500;10.020;2023-02-01T14:23:04;6.80;;;1.37;;
5742;SDS011;2896;53.500;10.020;2023-02-01T14:25:40;9.43;;;1.40;;
5742;SDS011;2896;53.500;10.020;2023-02-01T14:28:10;6.10;;;2.07;;
5742;SDS011;2896;53.500;10.020;2023-02-01T14:30:40;8.10;;;2.23;;
5742;SDS011;2896;53.500;10.020;2023-02-01T14:33:12;15.43;;;2.60;;
5742;SDS011;2896;53.500;10.020;2023-02-01T14:35:53;8.90;;;2.03;;
5742;SDS011;2896;53.500;10.020;2023-02-01T14:38:35;4.53;;;1.67;;
5742;SDS011;2896;53.500;10.020;2023-02-01T14:41:11;14.93;;;2.73;;
5742;SDS011;2896;53.500;10.020;2023-02-01T14:44:12;8.77;;;2.10;;
5742;SDS011;2896;53.500;10.020;2023-02-01T14:49:29;12.90;;;2.30;;
5742;SDS011;2896;53.500;10.020;2023-02-01T14:51:57;5.47;;;1.60;;
5742;SDS011;2896;53.500;10.020;2023-02-01T14:54:26;21.97;;;2.30;;
5742;SDS011;2896;53.500;10.020;2023-02-01T14:56:54;8.90;;;2.23;;
5742;SDS011;2896;53.500;10.020;2023-02-01T14:59:22;10.23;;;2.17;;
5742;SDS011;2896;53.500;10.020;2023-02-01T15:01:52;12.50;;;2.77;;
5742;SDS011;2896;53.500;10.020;2023-02-01T15:04:24;15.70;;;3.10;;
5742;SDS011;2896;53.500;10.020;2023-02-01T15:06:53;23.33;;;3.63;;
5742;SDS011;2896;53.500;10.020;2023-02-01T15:09:24;16.30;;;3.07;;
5742;SDS011;2896;53.500;10.020;2023-02-01T15:11:55;15.93;;;4.00;;
5742;SDS011;2896;53.500;10.020;2023-02-01T15:14:24;15.57;;;3.40;;
5742;SDS011;2896;53.500;10.020;2023-02-01T15:16:51;24.77;;;4.17;;
5742;SDS011;2896;53.500;10.020;2023-02-01T15:19:20;10.07;;;3.03;;
5742;SDS011;2896;53.500;10.020;2023-02-01T15:21:48;15.80;;;4.23;;
5742;SDS011;2896;53.500;10.020;2023-02-01T15:24:20;14.47;;;3.10;;
5742;SDS011;2896;53.500;10.020;2023-02-01T15:26:50;12.47;;;3.03;;
5742;SDS011;2896;53.500;10.020;2023-02-01T15:29:17;9.60;;;3.47;;
5742;SDS011;2896;53.500;10.020;2023-02-01T15:31:46;11.57;;;1.97;;
5742;SDS011;2896;53.500;10.020;2023-02-01T15:34:13;7.10;;;2.73;;
5742;SDS011;2896;53.500;10.020;2023-02-01T15:36:40;7.50;;;2.43;;
5742;SDS011;2896;53.500;10.020;2023-02-01T15:39:18;11.27;;;1.80;;
5742;SDS011;2896;53.500;10.020;2023-02-01T15:41:51;12.10;;;2.97;;
5742;SDS011;2896;53.500;10.020;2023-02-01T15:44:23;16.80;;;2.97;;
5742;SDS011;2896;53.500;10.020;2023-02-01T15:46:56;19.90;;;3.17;;
5742;SDS011;2896;53.500;10.020;2023-02-01T15:49:25;13.87;;;3.30;;